sensor_id;sensor_type;location;lat;lon;timestamp;pressure;altitude;pressure_sealevel;temperature;humidity
77023;BME280;65952;51.440;-2.054;2023-02-11T00:01:08;102318.78;;;7.43;84.62
77023;BME280;65952;51.440;-2.054;2023-02-11T00:03:34;102314.28;;;7.44;84.49
77023;BME280;65952;51.440;-2.054;2023-02-11T00:06:03;102306.44;;;7.41;84.28
77023;BME280;65952;51.440;-2.054;2023-02-11T00:08:28;102311.16;;;7.37;84.65
77023;BME280;65952;51.440;-2.054;2023-02-11T00:10:55;102311.34;;;7.34;84.92
77023;BME280;65952;51.440;-2.054;2023-02-11T00:13:25;102310.84;;;7.42;84.46
77023;BME280;65952;51.440;-2.054;2023-02-11T00:15:50;102310.00;;;7.41;84.60
77023;BME280;65952;51.440;-2.054;2023-02-11T00:18:16;102301.78;;;7.44;84.49
77023;BME280;65952;51.440;-2.054;2023-02-11T00:20:41;102312.38;;;7.46;84.25
77023;BME280;65952;51.440;-2.054;2023-02-11T00:23:07;102312.28;;;7.47;84.05
77023;BME280;65952;51.440;-2.054;2023-02-11T00:25:33;102311.78;;;7.55;83.77
77023;BME280;65952;51.440;-2.054;2023-02-11T00:28:02;102318.53;;;7.61;83.26
77023;BME280;65952;51.440;-2.054;2023-02-11T00:30:28;102319.31;;;7.63;83.26
77023;BME280;65952;51.440;-2.054;2023-02-11T00:32:53;102317.09;;;7.70;82.87
77023;BME280;65952;51.440;-2.054;2023-02-11T00:35:18;102308.88;;;7.73;82.63
77023;BME280;65952;51.440;-2.054;2023-02-11T00:37:44;102308.22;;;7.69;82.87
77023;BME280;65952;51.440;-2.054;2023-02-11T00:40:10;102299.44;;;7.67;82.92
77023;BME280;65952;51.440;-2.054;2023-02-11T00:42:35;102304.59;;;7.70;83.08
77023;BME280;65952;51.440;-2.054;2023-02-11T00:45:02;102296.28;;;7.75;83.01
77023;BME280;65952;51.440;-2.054;2023-02-11T00:47:27;102297.88;;;7.77;82.88
77023;BME280;65952;51.440;-2.054;2023-02-11T00:49:52;102300.56;;;7.77;82.85
77023;BME280;65952;51.440;-2.054;2023-02-11T00:52:18;102304.38;;;7.73;83.16
77023;BME280;65952;51.440;-2.054;2023-02-11T00:54:43;102312.00;;;7.79;83.14
77023;BME280;65952;51.440;-2.054;2023-02-11T00:57:09;102305.81;;;7.79;83.05
77023;BME280;65952;51.440;-2.054;2023-02-11T00:59:34;102308.47;;;7.79;83.00
77023;BME280;65952;51.440;-2.054;2023-02-11T01:02:00;102312.56;;;7.85;83.14
77023;BME280;65952;51.440;-2.054;2023-02-11T01:04:25;102313.81;;;7.79;82.87
77023;BME280;65952;51.440;-2.054;2023-02-11T01:06:50;102324.97;;;7.86;82.95
77023;BME280;65952;51.440;-2.054;2023-02-11T01:09:16;102317.50;;;7.91;82.56
77023;BME280;65952;51.440;-2.054;2023-02-11T01:11:42;102313.03;;;7.91;82.42
77023;BME280;65952;51.440;-2.054;2023-02-11T01:14:07;102309.94;;;7.97;82.49
77023;BME280;65952;51.440;-2.054;2023-02-11T01:16:33;102304.91;;;7.93;82.09
77023;BME280;65952;51.440;-2.054;2023-02-11T01:18:58;102312.91;;;7.93;82.37
77023;BME280;65952;51.440;-2.054;2023-02-11T01:21:24;102310.78;;;7.98;82.39
77023;BME280;65952;51.440;-2.054;2023-02-11T01:23:50;102308.88;;;8.00;82.22
77023;BME280;65952;51.440;-2.054;2023-02-11T01:26:18;102315.06;;;8.01;82.17
77023;BME280;65952;51.440;-2.054;2023-02-11T01:28:43;102308.13;;;7.98;81.92
77023;BME280;65952;51.440;-2.054;2023-02-11T01:31:09;102304.69;;;7.96;82.15
77023;BME280;65952;51.440;-2.054;2023-02-11T01:33:34;102301.25;;;7.94;82.25
77023;BME280;65952;51.440;-2.054;2023-02-11T01:36:04;102303.00;;;7.95;82.11
77023;BME280;65952;51.440;-2.054;2023-02-11T01:38:30;102299.72;;;7.90;82.33
77023;BME280;65952;51.440;-2.054;2023-02-11T01:41:01;102297.16;;;7.88;82.39
77023;BME280;65952;51.440;-2.054;2023-02-11T01:43:30;102287.53;;;7.86;82.69
77023;BME280;65952;51.440;-2.054;2023-02-11T01:46:03;102284.84;;;7.86;82.84
77023;BME280;65952;51.440;-2.054;2023-02-11T01:48:38;102275.78;;;7.88;82.50
77023;BME280;65952;51.440;-2.054;2023-02-11T01:51:11;102278.91;;;7.95;82.12
77023;BME280;65952;51.440;-2.054;2023-02-11T01:53:38;102281.78;;;7.92;82.42
77023;BME280;65952;51.440;-2.054;2023-02-11T01:56:24;102287.13;;;7.92;82.33
77023;BME280;65952;51.440;-2.054;2023-02-11T01:59:21;102277.75;;;7.99;82.19
77023;BME280;65952;51.440;-2.054;2023-02-11T02:01:51;102276.47;;;8.05;82.05
77023;BME280;65952;51.440;-2.054;2023-02-11T02:04:18;102270.91;;;8.08;81.92
77023;BME280;65952;51.440;-2.054;2023-02-11T02:06:57;102280.75;;;8.07;81.91
77023;BME280;65952;51.440;-2.054;2023-02-11T02:09:29;102284.53;;;8.18;81.37
77023;BME280;65952;51.440;-2.054;2023-02-11T02:11:58;102290.31;;;8.11;81.41
77023;BME280;65952;51.440;-2.054;2023-02-11T02:14:23;102283.97;;;8.12;81.42
77023;BME280;65952;51.440;-2.054;2023-02-11T02:16:50;102281.50;;;8.09;81.70
77023;BME280;65952;51.440;-2.054;2023-02-11T02:37:39;102272.41;;;8.12;81.40
77023;BME280;65952;51.440;-2.054;2023-02-11T02:40:13;102270.50;;;8.14;81.15
77023;BME280;65952;51.440;-2.054;2023-02-11T02:42:41;102271.34;;;8.14;81.12
77023;BME280;65952;51.440;-2.054;2023-02-11T02:45:08;102268.97;;;8.10;81.09
77023;BME280;65952;51.440;-2.054;2023-02-11T02:47:35;102271.56;;;8.11;81.06
77023;BME280;65952;51.440;-2.054;2023-02-11T02:50:00;102265.69;;;8.06;81.24
77023;BME280;65952;51.440;-2.054;2023-02-11T02:58:22;102232.41;;;8.10;80.29
77023;BME280;65952;51.440;-2.054;2023-02-11T03:06:23;102239.78;;;8.07;80.38
77023;BME280;65952;51.440;-2.054;2023-02-11T03:08:59;102230.03;;;8.06;80.39
77023;BME280;65952;51.440;-2.054;2023-02-11T03:11:27;102238.72;;;8.09;80.55
77023;BME280;65952;51.440;-2.054;2023-02-11T03:13:53;102241.59;;;8.06;80.50
77023;BME280;65952;51.440;-2.054;2023-02-11T03:16:24;102228.97;;;8.08;80.52
77023;BME280;65952;51.440;-2.054;2023-02-11T03:19:03;102243.50;;;8.04;80.51
77023;BME280;65952;51.440;-2.054;2023-02-11T03:21:32;102250.78;;;8.02;80.90
77023;BME280;65952;51.440;-2.054;2023-02-11T03:24:05;102251.72;;;8.01;80.88
77023;BME280;65952;51.440;-2.054;2023-02-11T03:35:27;102256.53;;;7.96;81.29
77023;BME280;65952;51.440;-2.054;2023-02-11T03:38:01;102257.28;;;7.98;81.15
77023;BME280;65952;51.440;-2.054;2023-02-11T03:40:33;102253.00;;;7.95;80.99
77023;BME280;65952;51.440;-2.054;2023-02-11T03:43:08;102256.53;;;7.96;81.20
77023;BME280;65952;51.440;-2.054;2023-02-11T03:45:36;102252.91;;;7.97;80.76
77023;BME280;65952;51.440;-2.054;2023-02-11T03:48:07;102248.63;;;7.94;80.41
77023;BME280;65952;51.440;-2.054;2023-02-11T03:50:36;102246.59;;;7.98;80.40
77023;BME280;65952;51.440;-2.054;2023-02-11T03:53:03;102251.84;;;8.00;80.40
77023;BME280;65952;51.440;-2.054;2023-02-11T03:55:32;102254.41;;;8.01;80.00
77023;BME280;65952;51.440;-2.054;2023-02-11T03:57:59;102260.75;;;8.00;80.10
77023;BME280;65952;51.440;-2.054;2023-02-11T04:00:33;102257.72;;;8.05;79.77
77023;BME280;65952;51.440;-2.054;2023-02-11T04:03:00;102258.50;;;8.07;79.60
77023;BME280;65952;51.440;-2.054;2023-02-11T04:05:26;102253.03;;;8.08;79.56
77023;BME280;65952;51.440;-2.054;2023-02-11T04:07:51;102246.06;;;8.06;79.47
77023;BME280;65952;51.440;-2.054;2023-02-11T04:10:17;102252.38;;;8.05;79.92
77023;BME280;65952;51.440;-2.054;2023-02-11T04:12:42;102253.16;;;8.07;79.76
77023;BME280;65952;51.440;-2.054;2023-02-11T04:15:08;102254.00;;;8.07;79.64
77023;BME280;65952;51.440;-2.054;2023-02-11T04:17:34;102263.09;;;8.05;79.74
77023;BME280;65952;51.440;-2.054;2023-02-11T04:19:59;102262.25;;;8.04;79.93
77023;BME280;65952;51.440;-2.054;2023-02-11T04:22:25;102257.66;;;8.06;79.66
77023;BME280;65952;51.440;-2.054;2023-02-11T04:24:50;102257.53;;;8.08;79.97
77023;BME280;65952;51.440;-2.054;2023-02-11T04:27:15;102264.69;;;8.07;79.67
77023;BME280;65952;51.440;-2.054;2023-02-11T04:29:41;102261.41;;;8.04;79.57
77023;BME280;65952;51.440;-2.054;2023-02-11T04:32:07;102267.59;;;8.04;80.00
77023;BME280;65952;51.440;-2.054;2023-02-11T04:34:32;102259.75;;;8.01;79.80
77023;BME280;65952;51.440;-2.054;2023-02-11T04:36:57;102268.13;;;8.09;79.62
77023;BME280;65952;51.440;-2.054;2023-02-11T04:39:23;102272.81;;;8.06;79.42
77023;BME280;65952;51.440;-2.054;2023-02-11T04:41:48;102283.22;;;8.10;79.50
77023;BME280;65952;51.440;-2.054;2023-02-11T04:44:14;102277.13;;;8.08;79.77
77023;BME280;65952;51.440;-2.054;2023-02-11T04:46:39;102286.09;;;8.07;79.74
77023;BME280;65952;51.440;-2.054;2023-02-11T04:49:04;102281.81;;;8.05;79.89
77023;BME280;65952;51.440;-2.054;2023-02-11T04:51:30;102278.06;;;8.07;80.25
77023;BME280;65952;51.440;-2.054;2023-02-11T04:53:57;102273.69;;;8.06;80.34
77023;BME280;65952;51.440;-2.054;2023-02-11T04:56:22;102271.97;;;8.05;80.45
77023;BME280;65952;51.440;-2.054;2023-02-11T04:58:47;102280.75;;;8.07;80.53
77023;BME280;65952;51.440;-2.054;2023-02-11T05:01:14;102292.44;;;8.06;80.55
77023;BME280;65952;51.440;-2.054;2023-02-11T05:03:41;102292.50;;;8.05;80.79
77023;BME280;65952;51.440;-2.054;2023-02-11T05:06:08;102295.28;;;8.03;80.77
77023;BME280;65952;51.440;-2.054;2023-02-11T05:08:33;102293.56;;;8.02;80.85
77023;BME280;65952;51.440;-2.054;2023-02-11T05:10:59;102309.84;;;7.99;81.18
77023;BME280;65952;51.440;-2.054;2023-02-11T05:13:26;102309.72;;;8.01;81.21
77023;BME280;65952;51.440;-2.054;2023-02-11T05:15:52;102306.00;;;8.03;80.96
77023;BME280;65952;51.440;-2.054;2023-02-11T05:18:18;102297.78;;;8.06;81.13
77023;BME280;65952;51.440;-2.054;2023-02-11T05:20:43;102298.50;;;8.08;81.09
77023;BME280;65952;51.440;-2.054;2023-02-11T05:23:10;102294.34;;;8.04;80.81
77023;BME280;65952;51.440;-2.054;2023-02-11T05:25:35;102301.03;;;7.97;81.38
77023;BME280;65952;51.440;-2.054;2023-02-11T05:28:01;102302.53;;;8.01;81.39
77023;BME280;65952;51.440;-2.054;2023-02-11T05:30:29;102302.53;;;8.01;81.33
77023;BME280;65952;51.440;-2.054;2023-02-11T05:32:55;102303.44;;;8.02;81.31
77023;BME280;65952;51.440;-2.054;2023-02-11T05:35:20;102294.53;;;8.01;81.06
77023;BME280;65952;51.440;-2.054;2023-02-11T05:37:46;102299.13;;;7.99;81.33
77023;BME280;65952;51.440;-2.054;2023-02-11T05:40:12;102288.44;;;7.99;81.33
77023;BME280;65952;51.440;-2.054;2023-02-11T05:42:37;102285.66;;;8.01;81.21
77023;BME280;65952;51.440;-2.054;2023-02-11T05:45:04;102296.06;;;8.05;80.91
77023;BME280;65952;51.440;-2.054;2023-02-11T05:47:30;102294.44;;;8.03;80.47
77023;BME280;65952;51.440;-2.054;2023-02-11T05:49:55;102291.97;;;8.00;80.85
77023;BME280;65952;51.440;-2.054;2023-02-11T05:52:27;102294.75;;;7.98;81.19
77023;BME280;65952;51.440;-2.054;2023-02-11T05:54:52;102292.91;;;7.98;81.14
77023;BME280;65952;51.440;-2.054;2023-02-11T05:57:17;102302.09;;;7.94;81.10
77023;BME280;65952;51.440;-2.054;2023-02-11T05:59:43;102303.84;;;7.95;81.10
77023;BME280;65952;51.440;-2.054;2023-02-11T06:02:09;102300.50;;;7.92;81.08
77023;BME280;65952;51.440;-2.054;2023-02-11T06:04:35;102288.97;;;7.91;80.94
77023;BME280;65952;51.440;-2.054;2023-02-11T06:07:02;102281.78;;;7.92;80.91
77023;BME280;65952;51.440;-2.054;2023-02-11T06:09:27;102283.06;;;7.86;81.23
77023;BME280;65952;51.440;-2.054;2023-02-11T06:11:53;102275.38;;;7.94;81.13
77023;BME280;65952;51.440;-2.054;2023-02-11T06:14:18;102281.38;;;7.98;80.96
77023;BME280;65952;51.440;-2.054;2023-02-11T06:16:43;102290.34;;;7.97;80.85
77023;BME280;65952;51.440;-2.054;2023-02-11T06:19:10;102288.03;;;8.05;80.85
77023;BME280;65952;51.440;-2.054;2023-02-11T06:21:36;102295.50;;;8.00;80.92
77023;BME280;65952;51.440;-2.054;2023-02-11T06:24:01;102300.09;;;7.98;80.70
77023;BME280;65952;51.440;-2.054;2023-02-11T06:26:27;102299.25;;;7.97;80.92
77023;BME280;65952;51.440;-2.054;2023-02-11T06:28:52;102296.75;;;7.94;80.87
77023;BME280;65952;51.440;-2.054;2023-02-11T06:31:17;102295.25;;;7.90;80.71
77023;BME280;65952;51.440;-2.054;2023-02-11T06:33:43;102306.13;;;7.87;80.66
77023;BME280;65952;51.440;-2.054;2023-02-11T06:36:17;102291.72;;;7.90;80.86
77023;BME280;65952;51.440;-2.054;2023-02-11T06:38:43;102288.28;;;7.88;80.87
77023;BME280;65952;51.440;-2.054;2023-02-11T06:41:10;102287.13;;;7.92;80.74
77023;BME280;65952;51.440;-2.054;2023-02-11T06:43:36;102292.38;;;7.93;80.82
77023;BME280;65952;51.440;-2.054;2023-02-11T06:46:01;102292.47;;;7.92;80.62
77023;BME280;65952;51.440;-2.054;2023-02-11T06:48:27;102302.50;;;7.88;81.10
77023;BME280;65952;51.440;-2.054;2023-02-11T06:50:52;102294.59;;;7.87;80.95
77023;BME280;65952;51.440;-2.054;2023-02-11T06:53:18;102292.78;;;7.87;80.96
77023;BME280;65952;51.440;-2.054;2023-02-11T06:55:43;102291.72;;;7.90;80.73
77023;BME280;65952;51.440;-2.054;2023-02-11T06:58:09;102297.81;;;7.92;81.09
77023;BME280;65952;51.440;-2.054;2023-02-11T07:00:35;102294.50;;;7.88;80.76
77023;BME280;65952;51.440;-2.054;2023-02-11T07:03:01;102294.59;;;7.87;81.21
77023;BME280;65952;51.440;-2.054;2023-02-11T07:05:26;102300.06;;;7.85;80.96
77023;BME280;65952;51.440;-2.054;2023-02-11T07:07:52;102299.00;;;7.88;81.06
77023;BME280;65952;51.440;-2.054;2023-02-11T07:10:17;102309.59;;;7.89;81.02
77023;BME280;65952;51.440;-2.054;2023-02-11T07:12:43;102304.22;;;7.89;81.29
77023;BME280;65952;51.440;-2.054;2023-02-11T07:15:08;102313.22;;;7.88;81.27
77023;BME280;65952;51.440;-2.054;2023-02-11T07:17:34;102323.81;;;7.90;81.13
77023;BME280;65952;51.440;-2.054;2023-02-11T07:20:00;102318.16;;;7.94;81.22
77023;BME280;65952;51.440;-2.054;2023-02-11T07:22:26;102317.97;;;7.97;81.03
77023;BME280;65952;51.440;-2.054;2023-02-11T07:24:51;102321.72;;;7.95;81.09
77023;BME280;65952;51.440;-2.054;2023-02-11T07:27:17;102326.28;;;7.93;81.14
77023;BME280;65952;51.440;-2.054;2023-02-11T07:29:43;102323.72;;;7.91;81.19
77023;BME280;65952;51.440;-2.054;2023-02-11T07:32:12;102326.69;;;7.87;81.39
77023;BME280;65952;51.440;-2.054;2023-02-11T07:34:37;102329.47;;;7.85;81.33
77023;BME280;65952;51.440;-2.054;2023-02-11T07:37:02;102340.06;;;7.87;81.46
77023;BME280;65952;51.440;-2.054;2023-02-11T07:39:28;102333.66;;;7.89;81.31
77023;BME280;65952;51.440;-2.054;2023-02-11T07:41:59;102333.88;;;7.86;81.36
77023;BME280;65952;51.440;-2.054;2023-02-11T07:44:24;102330.31;;;7.86;81.28
77023;BME280;65952;51.440;-2.054;2023-02-11T07:46:50;102335.47;;;7.89;81.09
77023;BME280;65952;51.440;-2.054;2023-02-11T07:49:15;102333.53;;;7.91;81.42
77023;BME280;65952;51.440;-2.054;2023-02-11T07:51:41;102337.75;;;7.95;81.46
77023;BME280;65952;51.440;-2.054;2023-02-11T07:54:06;102340.44;;;7.95;81.28
77023;BME280;65952;51.440;-2.054;2023-02-11T07:56:32;102341.16;;;7.97;81.20
77023;BME280;65952;51.440;-2.054;2023-02-11T07:59:00;102340.22;;;7.98;81.14
77023;BME280;65952;51.440;-2.054;2023-02-11T08:01:28;102338.38;;;7.98;80.95
77023;BME280;65952;51.440;-2.054;2023-02-11T08:03:56;102343.84;;;7.97;81.07
77023;BME280;65952;51.440;-2.054;2023-02-11T08:06:23;102352.53;;;8.01;80.99
77023;BME280;65952;51.440;-2.054;2023-02-11T08:08:49;102354.34;;;8.00;81.33
77023;BME280;65952;51.440;-2.054;2023-02-11T08:11:23;102352.34;;;8.04;81.07
77023;BME280;65952;51.440;-2.054;2023-02-11T08:13:50;102360.03;;;8.08;81.12
77023;BME280;65952;51.440;-2.054;2023-02-11T08:16:30;102364.44;;;8.09;80.81
77023;BME280;65952;51.440;-2.054;2023-02-11T08:18:58;102367.88;;;8.11;81.06
77023;BME280;65952;51.440;-2.054;2023-02-11T08:21:24;102373.00;;;8.14;81.07
77023;BME280;65952;51.440;-2.054;2023-02-11T08:23:50;102374.63;;;8.17;81.04
77023;BME280;65952;51.440;-2.054;2023-02-11T08:26:18;102377.84;;;8.22;80.88
77023;BME280;65952;51.440;-2.054;2023-02-11T08:28:45;102373.94;;;8.28;80.58
77023;BME280;65952;51.440;-2.054;2023-02-11T08:31:16;102368.91;;;8.36;80.40
77023;BME280;65952;51.440;-2.054;2023-02-11T08:33:42;102366.88;;;8.40;80.22
77023;BME280;65952;51.440;-2.054;2023-02-11T08:36:14;102368.41;;;8.44;79.78
77023;BME280;65952;51.440;-2.054;2023-02-11T08:38:41;102376.25;;;8.47;79.75
77023;BME280;65952;51.440;-2.054;2023-02-11T08:41:08;102374.00;;;8.54;79.51
77023;BME280;65952;51.440;-2.054;2023-02-11T08:43:35;102370.38;;;8.55;79.40
77023;BME280;65952;51.440;-2.054;2023-02-11T08:46:01;102361.81;;;8.62;79.00
77023;BME280;65952;51.440;-2.054;2023-02-11T08:48:27;102363.88;;;8.72;78.66
77023;BME280;65952;51.440;-2.054;2023-02-11T08:50:54;102367.09;;;8.77;78.43
77023;BME280;65952;51.440;-2.054;2023-02-11T08:53:19;102368.72;;;8.80;77.74
77023;BME280;65952;51.440;-2.054;2023-02-11T08:55:54;102382.84;;;8.82;77.64
77023;BME280;65952;51.440;-2.054;2023-02-11T08:58:20;102383.50;;;8.85;77.80
77023;BME280;65952;51.440;-2.054;2023-02-11T09:00:47;102380.91;;;8.84;77.54
77023;BME280;65952;51.440;-2.054;2023-02-11T09:03:14;102376.53;;;8.83;77.63
77023;BME280;65952;51.440;-2.054;2023-02-11T09:05:44;102382.84;;;8.82;77.63
77023;BME280;65952;51.440;-2.054;2023-02-11T09:08:13;102374.59;;;8.85;77.85
77023;BME280;65952;51.440;-2.054;2023-02-11T09:10:39;102383.41;;;8.87;77.69
77023;BME280;65952;51.440;-2.054;2023-02-11T09:13:05;102386.63;;;8.92;77.85
77023;BME280;65952;51.440;-2.054;2023-02-11T09:15:31;102392.94;;;8.91;77.95
77023;BME280;65952;51.440;-2.054;2023-02-11T09:17:57;102386.69;;;8.90;78.36
77023;BME280;65952;51.440;-2.054;2023-02-11T09:20:23;102398.28;;;8.91;78.31
77023;BME280;65952;51.440;-2.054;2023-02-11T09:22:49;102405.25;;;8.93;78.45
77023;BME280;65952;51.440;-2.054;2023-02-11T09:25:14;102402.59;;;8.93;78.79
77023;BME280;65952;51.440;-2.054;2023-02-11T09:27:40;102396.34;;;8.93;78.79
77023;BME280;65952;51.440;-2.054;2023-02-11T09:30:05;102395.50;;;8.92;78.97
77023;BME280;65952;51.440;-2.054;2023-02-11T09:32:31;102402.47;;;8.95;79.02
77023;BME280;65952;51.440;-2.054;2023-02-11T09:34:56;102408.38;;;9.00;78.86
77023;BME280;65952;51.440;-2.054;2023-02-11T09:37:22;102401.41;;;8.98;78.97
77023;BME280;65952;51.440;-2.054;2023-02-11T09:39:47;102400.56;;;8.97;78.79
77023;BME280;65952;51.440;-2.054;2023-02-11T09:42:24;102395.31;;;8.96;79.01
77023;BME280;65952;51.440;-2.054;2023-02-11T09:44:55;102394.22;;;8.98;79.15
77023;BME280;65952;51.440;-2.054;2023-02-11T09:47:31;102395.72;;;9.02;78.84
77023;BME280;65952;51.440;-2.054;2023-02-11T09:50:03;102396.38;;;9.06;79.10
77023;BME280;65952;51.440;-2.054;2023-02-11T09:55:00;102388.75;;;9.13;78.64
77023;BME280;65952;51.440;-2.054;2023-02-11T09:57:31;102391.44;;;9.13;78.59
77023;BME280;65952;51.440;-2.054;2023-02-11T09:59:57;102403.66;;;9.17;78.95
77023;BME280;65952;51.440;-2.054;2023-02-11T10:02:49;102398.09;;;9.20;78.99
77023;BME280;65952;51.440;-2.054;2023-02-11T10:05:24;102395.72;;;9.28;78.64
77023;BME280;65952;51.440;-2.054;2023-02-11T10:07:59;102400.75;;;9.33;78.69
77023;BME280;65952;51.440;-2.054;2023-02-11T10:10:59;102394.00;;;9.40;78.51
77023;BME280;65952;51.440;-2.054;2023-02-11T10:19:00;102397.84;;;9.49;78.08
77023;BME280;65952;51.440;-2.054;2023-02-11T10:24:20;102400.69;;;9.71;77.88
77023;BME280;65952;51.440;-2.054;2023-02-11T10:26:46;102401.34;;;9.75;76.93
77023;BME280;65952;51.440;-2.054;2023-02-11T10:32:04;102410.13;;;9.77;77.04
77023;BME280;65952;51.440;-2.054;2023-02-11T10:34:31;102410.56;;;9.84;77.20
77023;BME280;65952;51.440;-2.054;2023-02-11T10:36:56;102413.75;;;9.89;76.86
77023;BME280;65952;51.440;-2.054;2023-02-11T10:39:26;102414.38;;;9.92;76.21
77023;BME280;65952;51.440;-2.054;2023-02-11T10:41:58;102407.81;;;9.97;74.25
77023;BME280;65952;51.440;-2.054;2023-02-11T10:44:30;102415.09;;;10.07;74.35
77023;BME280;65952;51.440;-2.054;2023-02-11T10:46:59;102400.84;;;10.18;73.58
77023;BME280;65952;51.440;-2.054;2023-02-11T10:49:36;102411.44;;;10.33;73.00
77023;BME280;65952;51.440;-2.054;2023-02-11T10:52:24;102401.41;;;10.48;71.10
77023;BME280;65952;51.440;-2.054;2023-02-11T10:55:01;102407.78;;;10.58;70.70
77023;BME280;65952;51.440;-2.054;2023-02-11T10:57:36;102413.31;;;10.68;71.22
77023;BME280;65952;51.440;-2.054;2023-02-11T11:02:55;102419.06;;;10.75;70.13
77023;BME280;65952;51.440;-2.054;2023-02-11T11:05:34;102419.72;;;10.78;69.80
77023;BME280;65952;51.440;-2.054;2023-02-11T11:08:06;102412.75;;;10.76;69.14
77023;BME280;65952;51.440;-2.054;2023-02-11T11:13:02;102418.81;;;10.78;68.13
77023;BME280;65952;51.440;-2.054;2023-02-11T11:15:30;102418.63;;;10.81;67.57
77023;BME280;65952;51.440;-2.054;2023-02-11T11:18:16;102407.41;;;10.87;67.66
77023;BME280;65952;51.440;-2.054;2023-02-11T11:20:55;102413.63;;;10.99;67.12
77023;BME280;65952;51.440;-2.054;2023-02-11T11:23:22;102415.50;;;11.10;66.48
77023;BME280;65952;51.440;-2.054;2023-02-11T11:28:28;102401.81;;;11.13;65.91
77023;BME280;65952;51.440;-2.054;2023-02-11T11:30:56;102409.41;;;11.30;66.31
77023;BME280;65952;51.440;-2.054;2023-02-11T11:33:33;102408.91;;;11.36;65.53
77023;BME280;65952;51.440;-2.054;2023-02-11T11:36:12;102404.66;;;11.45;65.22
77023;BME280;65952;51.440;-2.054;2023-02-11T11:38:46;102404.28;;;11.61;64.98
77023;BME280;65952;51.440;-2.054;2023-02-11T11:41:32;102405.22;;;11.83;63.77
77023;BME280;65952;51.440;-2.054;2023-02-11T11:44:23;102394.59;;;11.81;62.98
77023;BME280;65952;51.440;-2.054;2023-02-11T11:46:53;102396.66;;;11.89;62.83
77023;BME280;65952;51.440;-2.054;2023-02-11T11:49:32;102402.78;;;12.02;62.59
77023;BME280;65952;51.440;-2.054;2023-02-11T11:52:24;102396.63;;;12.12;62.55
77023;BME280;65952;51.440;-2.054;2023-02-11T11:55:02;102402.63;;;12.15;62.50
77023;BME280;65952;51.440;-2.054;2023-02-11T11:57:30;102400.81;;;12.05;61.82
77023;BME280;65952;51.440;-2.054;2023-02-11T11:59:57;102388.81;;;11.86;63.06
77023;BME280;65952;51.440;-2.054;2023-02-11T12:05:36;102381.97;;;11.82;63.68
77023;BME280;65952;51.440;-2.054;2023-02-11T12:08:38;102377.84;;;11.78;63.29
77023;BME280;65952;51.440;-2.054;2023-02-11T12:11:20;102384.69;;;11.70;63.80
77023;BME280;65952;51.440;-2.054;2023-02-11T12:14:31;102375.88;;;11.57;63.75
77023;BME280;65952;51.440;-2.054;2023-02-11T12:25:53;102360.78;;;11.22;64.47
77023;BME280;65952;51.440;-2.054;2023-02-11T12:28:42;102361.75;;;11.21;64.87
77023;BME280;65952;51.440;-2.054;2023-02-11T12:40:38;102362.47;;;11.12;65.33
77023;BME280;65952;51.440;-2.054;2023-02-11T12:42:50;102362.22;;;11.15;65.47
77023;BME280;65952;51.440;-2.054;2023-02-11T12:57:18;102338.16;;;11.25;64.53
77023;BME280;65952;51.440;-2.054;2023-02-11T13:00:18;102345.75;;;11.19;64.83
77023;BME280;65952;51.440;-2.054;2023-02-11T13:03:33;102351.00;;;11.21;65.32
77023;BME280;65952;51.440;-2.054;2023-02-11T13:05:54;102343.63;;;11.12;64.52
77023;BME280;65952;51.440;-2.054;2023-02-11T13:08:28;102342.78;;;11.00;64.66
77023;BME280;65952;51.440;-2.054;2023-02-11T13:11:01;102343.63;;;11.00;64.55
77023;BME280;65952;51.440;-2.054;2023-02-11T13:13:37;102343.75;;;10.99;65.45
77023;BME280;65952;51.440;-2.054;2023-02-11T13:24:51;102335.00;;;11.08;66.17
77023;BME280;65952;51.440;-2.054;2023-02-11T13:27:26;102336.81;;;11.19;65.16
77023;BME280;65952;51.440;-2.054;2023-02-11T13:35:34;102337.41;;;11.45;63.99
77023;BME280;65952;51.440;-2.054;2023-02-11T13:38:05;102326.88;;;11.53;63.57
77023;BME280;65952;51.440;-2.054;2023-02-11T13:40:36;102326.63;;;11.57;63.83
77023;BME280;65952;51.440;-2.054;2023-02-11T13:43:04;102318.69;;;11.55;63.65
77023;BME280;65952;51.440;-2.054;2023-02-11T13:45:34;102327.72;;;11.54;63.81
77023;BME280;65952;51.440;-2.054;2023-02-11T13:48:04;102326.66;;;11.45;63.59
77023;BME280;65952;51.440;-2.054;2023-02-11T13:50:37;102338.03;;;11.37;64.21
77023;BME280;65952;51.440;-2.054;2023-02-11T13:53:06;102339.34;;;11.32;64.51
77023;BME280;65952;51.440;-2.054;2023-02-11T13:55:33;102335.84;;;11.20;65.48
77023;BME280;65952;51.440;-2.054;2023-02-11T14:11:52;102316.75;;;11.23;65.99
77023;BME280;65952;51.440;-2.054;2023-02-11T14:14:22;102315.56;;;11.27;65.70
77023;BME280;65952;51.440;-2.054;2023-02-11T14:19:45;102319.69;;;11.31;66.18
77023;BME280;65952;51.440;-2.054;2023-02-11T14:22:15;102308.56;;;11.36;65.47
77023;BME280;65952;51.440;-2.054;2023-02-11T14:40:53;102315.44;;;11.06;67.12
77023;BME280;65952;51.440;-2.054;2023-02-11T14:43:27;102312.25;;;11.01;67.05
77023;BME280;65952;51.440;-2.054;2023-02-11T14:45:56;102309.91;;;10.96;67.83
77023;BME280;65952;51.440;-2.054;2023-02-11T14:48:46;102307.00;;;10.88;67.31
77023;BME280;65952;51.440;-2.054;2023-02-11T14:51:27;102308.31;;;10.82;68.01
77023;BME280;65952;51.440;-2.054;2023-02-11T14:54:04;102309.56;;;10.78;68.34
77023;BME280;65952;51.440;-2.054;2023-02-11T14:56:37;102308.94;;;10.75;68.27
77023;BME280;65952;51.440;-2.054;2023-02-11T14:59:15;102314.31;;;10.75;68.77
77023;BME280;65952;51.440;-2.054;2023-02-11T15:01:45;102308.94;;;10.75;68.50
77023;BME280;65952;51.440;-2.054;2023-02-11T15:04:27;102309.06;;;10.73;68.81
77023;BME280;65952;51.440;-2.054;2023-02-11T15:06:54;102310.25;;;10.69;68.68
77023;BME280;65952;51.440;-2.054;2023-02-11T15:11:56;102318.28;;;10.57;69.36
77023;BME280;65952;51.440;-2.054;2023-02-11T15:14:27;102314.13;;;10.53;69.24
77023;BME280;65952;51.440;-2.054;2023-02-11T15:16:57;102319.00;;;10.48;69.56
77023;BME280;65952;51.440;-2.054;2023-02-11T15:21:48;102317.13;;;10.37;70.07
77023;BME280;65952;51.440;-2.054;2023-02-11T15:24:30;102322.72;;;10.34;70.16